sensor_id;sensor_type;location;lat;lon;timestamp;pressure;altitude;pressure_sealevel;temperature;humidity
69257;BME280;56376;53.356;-1.748;2023-07-20T00:02:13;99645.44;;;12.09;100.00
69257;BME280;56376;53.356;-1.748;2023-07-20T00:04:39;99649.72;;;12.12;100.00
69257;BME280;56376;53.356;-1.748;2023-07-20T00:07:04;99649.72;;;12.12;100.00
69257;BME280;56376;53.356;-1.748;2023-07-20T00:09:30;99652.34;;;12.12;100.00
69257;BME280;56376;53.356;-1.748;2023-07-20T00:11:56;99642.72;;;12.12;100.00
69257;BME280;56376;53.356;-1.748;2023-07-20T00:14:21;99640.94;;;12.13;100.00
69257;BME280;56376;53.356;-1.748;2023-07-20T00:16:49;99640.91;;;12.15;100.00
69257;BME280;56376;53.356;-1.748;2023-07-20T00:19:24;99653.00;;;12.17;100.00
69257;BME280;56376;53.356;-1.748;2023-07-20T00:21:50;99645.06;;;12.19;100.00
69257;BME280;56376;53.356;-1.748;2023-07-20T00:24:15;99634.53;;;12.20;100.00
69257;BME280;56376;53.356;-1.748;2023-07-20T00:26:41;99636.19;;;12.23;100.00
69257;BME280;56376;53.356;-1.748;2023-07-20T00:29:06;99637.81;;;12.25;100.00
69257;BME280;56376;53.356;-1.748;2023-07-20T00:31:31;99642.22;;;12.25;100.00
69257;BME280;56376;53.356;-1.748;2023-07-20T00:33:57;99636.19;;;12.23;100.00
69257;BME280;56376;53.356;-1.748;2023-07-20T00:36:22;99630.09;;;12.22;100.00
69257;BME280;56376;53.356;-1.748;2023-07-20T00:38:47;99634.47;;;12.22;100.00
69257;BME280;56376;53.356;-1.748;2023-07-20T00:41:13;99638.06;;;12.19;100.00
69257;BME280;56376;53.356;-1.748;2023-07-20T00:43:38;99639.78;;;12.20;100.00
69257;BME280;56376;53.356;-1.748;2023-07-20T00:46:03;99631.97;;;12.19;100.00
69257;BME280;56376;53.356;-1.748;2023-07-20T00:48:31;99637.88;;;12.24;100.00
69257;BME280;56376;53.356;-1.748;2023-07-20T00:51:00;99631.75;;;12.25;100.00
69257;BME280;56376;53.356;-1.748;2023-07-20T00:53:26;99630.03;;;12.24;100.00
69257;BME280;56376;53.356;-1.748;2023-07-20T00:55:52;99628.34;;;12.23;100.00
69257;BME280;56376;53.356;-1.748;2023-07-20T00:58:17;99622.16;;;12.24;100.00
69257;BME280;56376;53.356;-1.748;2023-07-20T01:00:43;99618.75;;;12.22;100.00
69257;BME280;56376;53.356;-1.748;2023-07-20T01:03:08;99618.00;;;12.20;100.00
69257;BME280;56376;53.356;-1.748;2023-07-20T01:08:53;99620.66;;;12.18;100.00
69257;BME280;56376;53.356;-1.748;2023-07-20T01:11:31;99608.38;;;12.20;100.00
69257;BME280;56376;53.356;-1.748;2023-07-20T01:14:01;99604.81;;;12.21;100.00
69257;BME280;56376;53.356;-1.748;2023-07-20T01:16:27;99598.69;;;12.22;100.00
69257;BME280;56376;53.356;-1.748;2023-07-20T01:18:53;99604.75;;;12.23;100.00
69257;BME280;56376;53.356;-1.748;2023-07-20T01:21:29;99596.91;;;12.23;100.00
69257;BME280;56376;53.356;-1.748;2023-07-20T01:27:25;99588.97;;;12.24;100.00
69257;BME280;56376;53.356;-1.748;2023-07-20T01:30:08;99582.09;;;12.22;100.00
69257;BME280;56376;53.356;-1.748;2023-07-20T01:32:40;99586.44;;;12.23;100.00
69257;BME280;56376;53.356;-1.748;2023-07-20T01:35:09;99587.41;;;12.20;100.00
69257;BME280;56376;53.356;-1.748;2023-07-20T01:37:37;99591.72;;;12.21;100.00
69257;BME280;56376;53.356;-1.748;2023-07-20T01:40:03;99593.44;;;12.22;100.00
69257;BME280;56376;53.356;-1.748;2023-07-20T01:42:29;99594.28;;;12.23;100.00
69257;BME280;56376;53.356;-1.748;2023-07-20T01:44:55;99592.50;;;12.23;100.00
69257;BME280;56376;53.356;-1.748;2023-07-20T01:47:20;99589.06;;;12.23;100.00
69257;BME280;56376;53.356;-1.748;2023-07-20T01:49:46;99587.31;;;12.22;100.00
69257;BME280;56376;53.356;-1.748;2023-07-20T01:52:11;99584.06;;;12.17;100.00
69257;BME280;56376;53.356;-1.748;2023-07-20T01:54:36;99587.72;;;12.12;100.00
69257;BME280;56376;53.356;-1.748;2023-07-20T01:57:02;99587.19;;;12.04;100.00
69257;BME280;56376;53.356;-1.748;2023-07-20T01:59:28;99587.19;;;12.04;100.00
69257;BME280;56376;53.356;-1.748;2023-07-20T02:01:53;99580.38;;;12.00;100.00
69257;BME280;56376;53.356;-1.748;2023-07-20T02:04:18;99580.50;;;11.97;100.00
69257;BME280;56376;53.356;-1.748;2023-07-20T02:06:44;99584.03;;;11.96;100.00
69257;BME280;56376;53.356;-1.748;2023-07-20T02:09:09;99578.66;;;11.99;100.00
69257;BME280;56376;53.356;-1.748;2023-07-20T02:11:34;99582.16;;;12.00;100.00
69257;BME280;56376;53.356;-1.748;2023-07-20T02:14:00;99583.78;;;12.02;100.00
69257;BME280;56376;53.356;-1.748;2023-07-20T02:16:25;99578.47;;;12.04;100.00
69257;BME280;56376;53.356;-1.748;2023-07-20T02:18:51;99576.69;;;12.04;100.00
69257;BME280;56376;53.356;-1.748;2023-07-20T02:21:17;99579.41;;;12.03;100.00
69257;BME280;56376;53.356;-1.748;2023-07-20T02:23:42;99578.56;;;12.02;100.00
69257;BME280;56376;53.356;-1.748;2023-07-20T02:26:08;99578.63;;;12.01;100.00
69257;BME280;56376;53.356;-1.748;2023-07-20T02:28:33;99572.66;;;11.97;100.00
69257;BME280;56376;53.356;-1.748;2023-07-20T02:30:59;99573.56;;;11.96;100.00
69257;BME280;56376;53.356;-1.748;2023-07-20T02:33:25;99570.28;;;11.91;100.00
69257;BME280;56376;53.356;-1.748;2023-07-20T02:35:51;99573.03;;;11.88;100.00
69257;BME280;56376;53.356;-1.748;2023-07-20T02:38:17;99571.34;;;11.87;100.00
69257;BME280;56376;53.356;-1.748;2023-07-20T02:40:42;99567.84;;;11.86;100.00
69257;BME280;56376;53.356;-1.748;2023-07-20T02:43:08;99566.25;;;11.82;100.00
69257;BME280;56376;53.356;-1.748;2023-07-20T02:45:35;99556.63;;;11.83;100.00
69257;BME280;56376;53.356;-1.748;2023-07-20T02:48:00;99560.19;;;11.82;100.00
69257;BME280;56376;53.356;-1.748;2023-07-20T02:50:26;99565.41;;;11.82;100.00
69257;BME280;56376;53.356;-1.748;2023-07-20T02:52:51;99568.94;;;11.81;100.00
69257;BME280;56376;53.356;-1.748;2023-07-20T02:55:17;99562.84;;;11.80;100.00
69257;BME280;56376;53.356;-1.748;2023-07-20T02:57:42;99564.53;;;11.81;100.00
69257;BME280;56376;53.356;-1.748;2023-07-20T03:00:08;99567.06;;;11.84;100.00
69257;BME280;56376;53.356;-1.748;2023-07-20T03:02:34;99559.94;;;11.88;100.00
69257;BME280;56376;53.356;-1.748;2023-07-20T03:04:59;99560.00;;;11.86;100.00
69257;BME280;56376;53.356;-1.748;2023-07-20T03:07:30;99560.88;;;11.85;100.00
69257;BME280;56376;53.356;-1.748;2023-07-20T03:09:55;99556.63;;;11.83;100.00
69257;BME280;56376;53.356;-1.748;2023-07-20T03:12:21;99562.00;;;11.80;100.00
69257;BME280;56376;53.356;-1.748;2023-07-20T03:14:47;99555.97;;;11.78;100.00
69257;BME280;56376;53.356;-1.748;2023-07-20T03:17:12;99555.13;;;11.77;100.00
69257;BME280;56376;53.356;-1.748;2023-07-20T03:19:37;99545.56;;;11.76;100.00
69257;BME280;56376;53.356;-1.748;2023-07-20T03:22:03;99553.41;;;11.76;100.00
69257;BME280;56376;53.356;-1.748;2023-07-20T03:24:28;99542.09;;;11.76;100.00
69257;BME280;56376;53.356;-1.748;2023-07-20T03:26:54;99550.78;;;11.76;100.00
69257;BME280;56376;53.356;-1.748;2023-07-20T03:29:19;99556.81;;;11.78;100.00
69257;BME280;56376;53.356;-1.748;2023-07-20T03:31:44;99544.66;;;11.77;100.00
69257;BME280;56376;53.356;-1.748;2023-07-20T03:34:10;99544.66;;;11.77;100.00
69257;BME280;56376;53.356;-1.748;2023-07-20T03:36:35;99545.50;;;11.78;100.00
69257;BME280;56376;53.356;-1.748;2023-07-20T03:39:01;99536.84;;;11.76;100.00
69257;BME280;56376;53.356;-1.748;2023-07-20T03:41:26;99540.44;;;11.73;100.00
69257;BME280;56376;53.356;-1.748;2023-07-20T03:43:51;99537.97;;;11.70;100.00
69257;BME280;56376;53.356;-1.748;2023-07-20T03:46:17;99541.44;;;11.70;100.00
69257;BME280;56376;53.356;-1.748;2023-07-20T03:48:42;99543.13;;;11.72;100.00
69257;BME280;56376;53.356;-1.748;2023-07-20T03:51:07;99543.13;;;11.72;100.00
69257;BME280;56376;53.356;-1.748;2023-07-20T03:53:33;99530.03;;;11.72;100.00
69257;BME280;56376;53.356;-1.748;2023-07-20T03:55:58;99534.38;;;11.73;100.00
69257;BME280;56376;53.356;-1.748;2023-07-20T03:58:23;99532.66;;;11.72;100.00
69257;BME280;56376;53.356;-1.748;2023-07-20T04:00:50;99534.41;;;11.71;100.00
69257;BME280;56376;53.356;-1.748;2023-07-20T04:03:17;99546.53;;;11.74;100.00
69257;BME280;56376;53.356;-1.748;2023-07-20T04:05:43;99538.69;;;11.74;100.00
69257;BME280;56376;53.356;-1.748;2023-07-20T04:08:09;99536.06;;;11.74;100.00
69257;BME280;56376;53.356;-1.748;2023-07-20T04:10:36;99530.03;;;11.72;100.00
69257;BME280;56376;53.356;-1.748;2023-07-20T04:13:01;99539.75;;;11.69;100.00
69257;BME280;56376;53.356;-1.748;2023-07-20T04:15:27;99532.72;;;11.70;100.00
69257;BME280;56376;53.356;-1.748;2023-07-20T04:17:52;99519.00;;;11.65;100.00
69257;BME280;56376;53.356;-1.748;2023-07-20T04:20:18;99523.13;;;11.70;100.00
69257;BME280;56376;53.356;-1.748;2023-07-20T04:22:44;99524.81;;;11.72;100.00
69257;BME280;56376;53.356;-1.748;2023-07-20T04:25:09;99528.22;;;11.74;100.00
69257;BME280;56376;53.356;-1.748;2023-07-20T04:27:35;99527.31;;;11.75;100.00
69257;BME280;56376;53.356;-1.748;2023-07-20T04:30:01;99530.78;;;11.75;100.00
69257;BME280;56376;53.356;-1.748;2023-07-20T04:32:27;99530.66;;;11.78;100.00
69257;BME280;56376;53.356;-1.748;2023-07-20T04:34:53;99526.34;;;11.77;100.00
69257;BME280;56376;53.356;-1.748;2023-07-20T04:37:18;99532.41;;;11.78;100.00
69257;BME280;56376;53.356;-1.748;2023-07-20T04:39:44;99525.59;;;11.74;100.00
69257;BME280;56376;53.356;-1.748;2023-07-20T04:42:09;99528.09;;;11.77;100.00
69257;BME280;56376;53.356;-1.748;2023-07-20T04:44:34;99523.78;;;11.76;100.00
69257;BME280;56376;53.356;-1.748;2023-07-20T04:47:00;99519.34;;;11.78;100.00
69257;BME280;56376;53.356;-1.748;2023-07-20T04:49:25;99516.78;;;11.76;100.00
69257;BME280;56376;53.356;-1.748;2023-07-20T04:51:51;99524.44;;;11.81;100.00
69257;BME280;56376;53.356;-1.748;2023-07-20T04:54:17;99516.59;;;11.81;100.00
69257;BME280;56376;53.356;-1.748;2023-07-20T04:56:43;99518.31;;;11.82;100.00
69257;BME280;56376;53.356;-1.748;2023-07-20T04:59:09;99521.78;;;11.82;100.00
69257;BME280;56376;53.356;-1.748;2023-07-20T05:01:34;99523.47;;;11.83;100.00
69257;BME280;56376;53.356;-1.748;2023-07-20T05:04:00;99518.22;;;11.83;100.00
69257;BME280;56376;53.356;-1.748;2023-07-20T05:06:25;99512.94;;;11.85;100.00
69257;BME280;56376;53.356;-1.748;2023-07-20T05:08:51;99515.50;;;11.86;100.00
69257;BME280;56376;53.356;-1.748;2023-07-20T05:11:16;99520.63;;;11.89;100.00
69257;BME280;56376;53.356;-1.748;2023-07-20T05:13:41;99509.22;;;11.90;100.00
69257;BME280;56376;53.356;-1.748;2023-07-20T05:16:07;99512.69;;;11.91;100.00
69257;BME280;56376;53.356;-1.748;2023-07-20T05:18:32;99524.88;;;11.92;100.00
69257;BME280;56376;53.356;-1.748;2023-07-20T05:20:58;99524.00;;;11.91;100.00
69257;BME280;56376;53.356;-1.748;2023-07-20T05:23:24;99519.66;;;11.92;100.00
69257;BME280;56376;53.356;-1.748;2023-07-20T05:25:59;99524.75;;;11.95;100.00
69257;BME280;56376;53.356;-1.748;2023-07-20T05:28:26;99523.78;;;11.98;100.00
69257;BME280;56376;53.356;-1.748;2023-07-20T05:30:52;99525.41;;;12.00;100.00
69257;BME280;56376;53.356;-1.748;2023-07-20T05:33:21;99519.25;;;12.01;100.00
69257;BME280;56376;53.356;-1.748;2023-07-20T05:35:47;99520.88;;;12.04;100.00
69257;BME280;56376;53.356;-1.748;2023-07-20T05:38:13;99526.06;;;12.05;100.00
69257;BME280;56376;53.356;-1.748;2023-07-20T05:40:40;99519.00;;;12.07;100.00
69257;BME280;56376;53.356;-1.748;2023-07-20T05:43:06;99521.53;;;12.09;100.00
69257;BME280;56376;53.356;-1.748;2023-07-20T05:45:32;99513.69;;;12.09;100.00
69257;BME280;56376;53.356;-1.748;2023-07-20T05:47:57;99524.09;;;12.10;100.00
69257;BME280;56376;53.356;-1.748;2023-07-20T05:50:22;99523.13;;;12.13;100.00
69257;BME280;56376;53.356;-1.748;2023-07-20T05:52:48;99523.13;;;12.13;100.00
69257;BME280;56376;53.356;-1.748;2023-07-20T05:55:14;99513.44;;;12.15;100.00
69257;BME280;56376;53.356;-1.748;2023-07-20T05:57:39;99511.59;;;12.17;100.00
69257;BME280;56376;53.356;-1.748;2023-07-20T06:00:07;99528.03;;;12.21;100.00
69257;BME280;56376;53.356;-1.748;2023-07-20T06:02:33;99520.03;;;12.24;100.00
69257;BME280;56376;53.356;-1.748;2023-07-20T06:04:59;99513.94;;;12.23;100.00
69257;BME280;56376;53.356;-1.748;2023-07-20T06:07:24;99527.75;;;12.27;100.00
69257;BME280;56376;53.356;-1.748;2023-07-20T06:09:49;99524.22;;;12.28;100.00
69257;BME280;56376;53.356;-1.748;2023-07-20T06:12:15;99513.66;;;12.29;100.00
69257;BME280;56376;53.356;-1.748;2023-07-20T06:14:40;99515.44;;;12.29;100.00
69257;BME280;56376;53.356;-1.748;2023-07-20T06:17:05;99519.66;;;12.33;100.00
69257;BME280;56376;53.356;-1.748;2023-07-20T06:19:31;99525.53;;;12.38;100.00
69257;BME280;56376;53.356;-1.748;2023-07-20T06:21:56;99519.34;;;12.39;100.00
69257;BME280;56376;53.356;-1.748;2023-07-20T06:24:21;99527.06;;;12.42;100.00
69257;BME280;56376;53.356;-1.748;2023-07-20T06:26:47;99518.31;;;12.43;100.00
69257;BME280;56376;53.356;-1.748;2023-07-20T06:29:12;99520.00;;;12.44;100.00
69257;BME280;56376;53.356;-1.748;2023-07-20T06:31:38;99512.94;;;12.46;100.00
69257;BME280;56376;53.356;-1.748;2023-07-20T06:34:03;99518.03;;;12.49;100.00
69257;BME280;56376;53.356;-1.748;2023-07-20T06:36:29;99522.28;;;12.52;100.00
69257;BME280;56376;53.356;-1.748;2023-07-20T06:38:55;99521.31;;;12.54;100.00
69257;BME280;56376;53.356;-1.748;2023-07-20T06:41:21;99518.63;;;12.56;100.00
69257;BME280;56376;53.356;-1.748;2023-07-20T06:43:46;99522.94;;;12.57;100.00
69257;BME280;56376;53.356;-1.748;2023-07-20T06:46:12;99523.66;;;12.61;100.00
69257;BME280;56376;53.356;-1.748;2023-07-20T06:48:37;99518.28;;;12.64;100.00
69257;BME280;56376;53.356;-1.748;2023-07-20T06:51:02;99515.59;;;12.65;100.00
69257;BME280;56376;53.356;-1.748;2023-07-20T06:53:29;99518.13;;;12.67;100.00
69257;BME280;56376;53.356;-1.748;2023-07-20T06:55:54;99517.22;;;12.68;100.00
69257;BME280;56376;53.356;-1.748;2023-07-20T06:58:22;99517.94;;;12.71;100.00
69257;BME280;56376;53.356;-1.748;2023-07-20T07:00:48;99521.34;;;12.73;100.00
69257;BME280;56376;53.356;-1.748;2023-07-20T07:03:13;99523.13;;;12.73;100.00
69257;BME280;56376;53.356;-1.748;2023-07-20T07:05:39;99527.28;;;12.77;100.00
69257;BME280;56376;53.356;-1.748;2023-07-20T07:08:04;99523.66;;;12.80;100.00
69257;BME280;56376;53.356;-1.748;2023-07-20T07:10:30;99514.91;;;12.81;100.00
69257;BME280;56376;53.356;-1.748;2023-07-20T07:12:55;99525.25;;;12.84;100.00
69257;BME280;56376;53.356;-1.748;2023-07-20T07:15:21;99514.75;;;12.84;100.00
69257;BME280;56376;53.356;-1.748;2023-07-20T07:17:46;99518.31;;;12.83;100.00
69257;BME280;56376;53.356;-1.748;2023-07-20T07:20:11;99532.06;;;12.88;100.00
69257;BME280;56376;53.356;-1.748;2023-07-20T07:22:37;99535.44;;;12.90;100.00
69257;BME280;56376;53.356;-1.748;2023-07-20T07:25:03;99534.38;;;12.94;100.00
69257;BME280;56376;53.356;-1.748;2023-07-20T07:27:29;99531.72;;;12.95;100.00
69257;BME280;56376;53.356;-1.748;2023-07-20T07:29:54;99535.88;;;12.99;100.00
69257;BME280;56376;53.356;-1.748;2023-07-20T07:32:20;99534.88;;;13.02;100.00
69257;BME280;56376;53.356;-1.748;2023-07-20T07:34:46;99532.00;;;13.08;100.00
69257;BME280;56376;53.356;-1.748;2023-07-20T07:37:13;99540.63;;;13.10;100.00
69257;BME280;56376;53.356;-1.748;2023-07-20T07:39:39;99540.56;;;13.12;100.00
69257;BME280;56376;53.356;-1.748;2023-07-20T07:42:05;99542.31;;;13.11;100.00
69257;BME280;56376;53.356;-1.748;2023-07-20T07:44:30;99539.66;;;13.13;100.00
69257;BME280;56376;53.356;-1.748;2023-07-20T07:46:56;99533.53;;;13.12;100.00
69257;BME280;56376;53.356;-1.748;2023-07-20T07:49:21;99532.63;;;13.13;100.00
69257;BME280;56376;53.356;-1.748;2023-07-20T07:51:46;99532.53;;;13.15;100.00
69257;BME280;56376;53.356;-1.748;2023-07-20T07:54:12;99542.91;;;13.18;100.00
69257;BME280;56376;53.356;-1.748;2023-07-20T07:56:37;99541.91;;;13.20;100.00
69257;BME280;56376;53.356;-1.748;2023-07-20T07:59:03;99540.13;;;13.21;100.00
69257;BME280;56376;53.356;-1.748;2023-07-20T08:01:28;99541.81;;;13.22;100.00
69257;BME280;56376;53.356;-1.748;2023-07-20T08:03:55;99537.50;;;13.21;100.00
69257;BME280;56376;53.356;-1.748;2023-07-20T08:06:21;99539.91;;;13.26;100.00
69257;BME280;56376;53.356;-1.748;2023-07-20T08:08:46;99540.66;;;13.29;100.00
69257;BME280;56376;53.356;-1.748;2023-07-20T08:11:11;99531.78;;;13.32;100.00
69257;BME280;56376;53.356;-1.748;2023-07-20T08:13:37;99537.72;;;13.35;100.00
69257;BME280;56376;53.356;-1.748;2023-07-20T08:16:02;99542.91;;;13.37;100.00
69257;BME280;56376;53.356;-1.748;2023-07-20T08:18:28;99537.44;;;13.41;100.00
69257;BME280;56376;53.356;-1.748;2023-07-20T08:20:54;99537.38;;;13.43;100.00
69257;BME280;56376;53.356;-1.748;2023-07-20T08:23:20;99546.78;;;13.47;100.00
69257;BME280;56376;53.356;-1.748;2023-07-20T08:25:45;99548.50;;;13.48;100.00
69257;BME280;56376;53.356;-1.748;2023-07-20T08:28:13;99553.66;;;13.50;100.00
69257;BME280;56376;53.356;-1.748;2023-07-20T08:30:43;99550.88;;;13.53;100.00
69257;BME280;56376;53.356;-1.748;2023-07-20T08:33:16;99552.59;;;13.54;100.00
69257;BME280;56376;53.356;-1.748;2023-07-20T08:35:43;99554.28;;;13.55;100.00
69257;BME280;56376;53.356;-1.748;2023-07-20T08:38:09;99555.84;;;13.59;100.00
69257;BME280;56376;53.356;-1.748;2023-07-20T08:40:40;99548.50;;;13.66;100.00
69257;BME280;56376;53.356;-1.748;2023-07-20T08:43:05;99549.38;;;13.66;100.00
69257;BME280;56376;53.356;-1.748;2023-07-20T08:45:33;99558.94;;;13.67;100.00
69257;BME280;56376;53.356;-1.748;2023-07-20T08:48:00;99552.69;;;13.70;100.00
69257;BME280;56376;53.356;-1.748;2023-07-20T08:50:30;99548.13;;;13.73;100.00
69257;BME280;56376;53.356;-1.748;2023-07-20T08:52:57;99543.59;;;13.77;100.00
69257;BME280;56376;53.356;-1.748;2023-07-20T08:55:24;99548.00;;;13.76;100.00
69257;BME280;56376;53.356;-1.748;2023-07-20T08:57:59;99546.06;;;13.80;100.00
69257;BME280;56376;53.356;-1.748;2023-07-20T09:00:26;99550.16;;;13.85;100.00
69257;BME280;56376;53.356;-1.748;2023-07-20T09:02:54;99546.47;;;13.90;100.00
69257;BME280;56376;53.356;-1.748;2023-07-20T09:05:22;99536.75;;;13.92;100.00
69257;BME280;56376;53.356;-1.748;2023-07-20T09:07:48;99540.00;;;13.97;100.00
69257;BME280;56376;53.356;-1.748;2023-07-20T09:10:14;99532.91;;;13.99;100.00
69257;BME280;56376;53.356;-1.748;2023-07-20T09:12:41;99537.03;;;14.03;100.00
69257;BME280;56376;53.356;-1.748;2023-07-20T09:15:07;99542.13;;;14.06;100.00
69257;BME280;56376;53.356;-1.748;2023-07-20T09:17:33;99535.03;;;14.08;100.00
69257;BME280;56376;53.356;-1.748;2023-07-20T09:20:05;99540.22;;;14.10;100.00
69257;BME280;56376;53.356;-1.748;2023-07-20T09:22:37;99550.78;;;14.08;100.00
69257;BME280;56376;53.356;-1.748;2023-07-20T09:25:12;99545.41;;;14.11;100.00
69257;BME280;56376;53.356;-1.748;2023-07-20T09:27:41;99536.59;;;14.12;100.00
69257;BME280;56376;53.356;-1.748;2023-07-20T09:30:07;99557.38;;;14.17;100.00
69257;BME280;56376;53.356;-1.748;2023-07-20T09:32:41;99553.75;;;14.19;100.00
69257;BME280;56376;53.356;-1.748;2023-07-20T09:35:16;99546.72;;;14.20;100.00
69257;BME280;56376;53.356;-1.748;2023-07-20T09:37:58;99544.84;;;14.22;100.00
69257;BME280;56376;53.356;-1.748;2023-07-20T09:40:25;99548.41;;;14.21;100.00
69257;BME280;56376;53.356;-1.748;2023-07-20T09:42:52;99545.53;;;14.25;100.00
69257;BME280;56376;53.356;-1.748;2023-07-20T09:45:18;99546.38;;;14.26;100.00
69257;BME280;56376;53.356;-1.748;2023-07-20T09:47:43;99549.72;;;14.29;100.00
69257;BME280;56376;53.356;-1.748;2023-07-20T09:50:09;99548.72;;;14.32;100.00
69257;BME280;56376;53.356;-1.748;2023-07-20T09:52:38;99556.44;;;14.35;100.00
69257;BME280;56376;53.356;-1.748;2023-07-20T09:55:06;99553.75;;;14.37;100.00
69257;BME280;56376;53.356;-1.748;2023-07-20T09:57:33;99552.78;;;14.38;100.00
69257;BME280;56376;53.356;-1.748;2023-07-20T09:59:59;99550.94;;;14.40;100.00
69257;BME280;56376;53.356;-1.748;2023-07-20T10:02:32;99552.56;;;14.42;100.00
69257;BME280;56376;53.356;-1.748;2023-07-20T10:05:02;99552.50;;;14.44;100.00
69257;BME280;56376;53.356;-1.748;2023-07-20T10:07:30;99543.66;;;14.45;100.00
69257;BME280;56376;53.356;-1.748;2023-07-20T10:09:59;99540.88;;;14.48;100.00
69257;BME280;56376;53.356;-1.748;2023-07-20T10:12:27;99545.97;;;14.51;100.00
69257;BME280;56376;53.356;-1.748;2023-07-20T10:18:09;99541.34;;;14.56;100.00
69257;BME280;56376;53.356;-1.748;2023-07-20T10:20:39;99538.72;;;14.56;100.00
69257;BME280;56376;53.356;-1.748;2023-07-20T10:23:06;99533.41;;;14.58;100.00
69257;BME280;56376;53.356;-1.748;2023-07-20T10:25:33;99528.75;;;14.63;100.00
69257;BME280;56376;53.356;-1.748;2023-07-20T10:28:04;99529.41;;;14.66;100.00
69257;BME280;56376;53.356;-1.748;2023-07-20T10:30:31;99530.78;;;14.74;100.00
69257;BME280;56376;53.356;-1.748;2023-07-20T10:32:57;99529.78;;;14.76;100.00
69257;BME280;56376;53.356;-1.748;2023-07-20T10:35:22;99526.91;;;14.81;100.00
69257;BME280;56376;53.356;-1.748;2023-07-20T10:37:49;99525.72;;;14.86;100.00
69257;BME280;56376;53.356;-1.748;2023-07-20T10:40:29;99523.78;;;14.90;100.00
69257;BME280;56376;53.356;-1.748;2023-07-20T10:43:07;99527.03;;;14.95;100.00
69257;BME280;56376;53.356;-1.748;2023-07-20T10:45:41;99530.31;;;14.99;100.00
69257;BME280;56376;53.356;-1.748;2023-07-20T10:48:25;99525.06;;;14.99;100.00
69257;BME280;56376;53.356;-1.748;2023-07-20T10:51:13;99524.81;;;15.03;100.00
69257;BME280;56376;53.356;-1.748;2023-07-20T10:53:42;99525.75;;;15.02;100.00
69257;BME280;56376;53.356;-1.748;2023-07-20T10:56:21;99525.66;;;15.04;100.00
69257;BME280;56376;53.356;-1.748;2023-07-20T10:58:47;99521.25;;;15.04;100.00
69257;BME280;56376;53.356;-1.748;2023-07-20T11:01:14;99535.16;;;15.06;100.00
69257;BME280;56376;53.356;-1.748;2023-07-20T11:03:40;99530.59;;;15.10;100.00
69257;BME280;56376;53.356;-1.748;2023-07-20T11:08:55;99521.94;;;15.24;100.00
69257;BME280;56376;53.356;-1.748;2023-07-20T11:11:26;99515.47;;;15.29;100.00
69257;BME280;56376;53.356;-1.748;2023-07-20T11:13:59;99516.00;;;15.36;100.00
69257;BME280;56376;53.356;-1.748;2023-07-20T11:19:12;99514.19;;;15.52;100.00
69257;BME280;56376;53.356;-1.748;2023-07-20T11:21:44;99498.41;;;15.52;100.00
69257;BME280;56376;53.356;-1.748;2023-07-20T11:24:09;99497.97;;;15.60;100.00
69257;BME280;56376;53.356;-1.748;2023-07-20T11:29:12;99504.31;;;15.72;98.52
69257;BME280;56376;53.356;-1.748;2023-07-20T11:31:39;99493.44;;;15.78;99.40
69257;BME280;56376;53.356;-1.748;2023-07-20T11:34:05;99495.72;;;15.84;99.63
69257;BME280;56376;53.356;-1.748;2023-07-20T11:36:30;99498.00;;;15.90;100.00
69257;BME280;56376;53.356;-1.748;2023-07-20T11:38:57;99488.03;;;15.95;100.00
69257;BME280;56376;53.356;-1.748;2023-07-20T11:41:22;99491.31;;;15.99;99.48
69257;BME280;56376;53.356;-1.748;2023-07-20T11:43:48;99491.31;;;15.99;98.93
69257;BME280;56376;53.356;-1.748;2023-07-20T11:46:13;99485.28;;;15.97;100.00
69257;BME280;56376;53.356;-1.748;2023-07-20T11:48:39;99488.69;;;15.99;100.00
69257;BME280;56376;53.356;-1.748;2023-07-20T11:51:05;99486.91;;;15.99;98.49
69257;BME280;56376;53.356;-1.748;2023-07-20T11:53:31;99491.31;;;15.99;99.40
69257;BME280;56376;53.356;-1.748;2023-07-20T11:55:58;99488.63;;;16.00;96.90
69257;BME280;56376;53.356;-1.748;2023-07-20T11:58:24;99483.25;;;16.02;97.64
69257;BME280;56376;53.356;-1.748;2023-07-20T12:00:49;99479.50;;;16.06;96.22
69257;BME280;56376;53.356;-1.748;2023-07-20T12:03:15;99483.53;;;16.12;95.35
69257;BME280;56376;53.356;-1.748;2023-07-20T12:05:40;99485.53;;;16.22;96.74
69257;BME280;56376;53.356;-1.748;2023-07-20T12:08:06;99482.53;;;16.29;96.81
69257;BME280;56376;53.356;-1.748;2023-07-20T12:10:31;99489.13;;;16.36;95.86
69257;BME280;56376;53.356;-1.748;2023-07-20T12:13:03;99482.63;;;16.41;94.65
69257;BME280;56376;53.356;-1.748;2023-07-20T12:15:29;99472.72;;;16.45;89.00
69257;BME280;56376;53.356;-1.748;2023-07-20T12:18:02;99480.19;;;16.53;89.50
69257;BME280;56376;53.356;-1.748;2023-07-20T12:20:35;99469.16;;;16.60;90.57
69257;BME280;56376;53.356;-1.748;2023-07-20T12:23:09;99469.34;;;16.72;91.27
69257;BME280;56376;53.356;-1.748;2023-07-20T12:28:12;99461.63;;;16.83;89.70
69257;BME280;56376;53.356;-1.748;2023-07-20T12:30:40;99464.53;;;16.93;88.19
69257;BME280;56376;53.356;-1.748;2023-07-20T12:33:06;99463.59;;;16.94;88.71
69257;BME280;56376;53.356;-1.748;2023-07-20T12:35:32;99468.00;;;16.93;89.21
69257;BME280;56376;53.356;-1.748;2023-07-20T12:37:58;99475.09;;;16.93;88.42
69257;BME280;56376;53.356;-1.748;2023-07-20T12:40:24;99476.47;;;16.98;85.42
69257;BME280;56376;53.356;-1.748;2023-07-20T12:42:49;99469.22;;;17.02;87.62
69257;BME280;56376;53.356;-1.748;2023-07-20T12:45:15;99458.19;;;17.09;85.61
69257;BME280;56376;53.356;-1.748;2023-07-20T12:47:41;99451.84;;;17.12;84.66
69257;BME280;56376;53.356;-1.748;2023-07-20T12:50:08;99460.03;;;17.22;85.47
69257;BME280;56376;53.356;-1.748;2023-07-20T12:52:38;99453.72;;;17.24;85.32
69257;BME280;56376;53.356;-1.748;2023-07-20T12:55:04;99457.66;;;17.32;84.88
69257;BME280;56376;53.356;-1.748;2023-07-20T12:57:30;99463.47;;;17.37;83.48
69257;BME280;56376;53.356;-1.748;2023-07-20T12:59:55;99455.81;;;17.46;73.54